sensor_id;sensor_type;location;lat;lon;timestamp;temperature;humidity
6724;DHT22;3399;52.530;13.304;2023-02-18T00:01:53;7.00;99.90
6724;DHT22;3399;52.530;13.304;2023-02-18T00:04:18;7.10;99.90
6724;DHT22;3399;52.530;13.304;2023-02-18T00:06:44;7.00;99.90
6724;DHT22;3399;52.530;13.304;2023-02-18T00:09:10;7.00;99.90
6724;DHT22;3399;52.530;13.304;2023-02-18T00:11:36;7.00;99.90
6724;DHT22;3399;52.530;13.304;2023-02-18T00:14:05;7.00;99.90
6724;DHT22;3399;52.530;13.304;2023-02-18T00:16:30;6.90;99.90
6724;DHT22;3399;52.530;13.304;2023-02-18T00:18:57;7.00;99.90
6724;DHT22;3399;52.530;13.304;2023-02-18T00:21:23;6.90;99.90
6724;DHT22;3399;52.530;13.304;2023-02-18T00:23:49;6.90;99.90
6724;DHT22;3399;52.530;13.304;2023-02-18T00:26:16;6.80;99.90
6724;DHT22;3399;52.530;13.304;2023-02-18T00:28:42;6.90;99.90
6724;DHT22;3399;52.530;13.304;2023-02-18T00:31:13;6.80;99.90
6724;DHT22;3399;52.530;13.304;2023-02-18T00:33:40;6.70;99.90
6724;DHT22;3399;52.530;13.304;2023-02-18T00:36:09;6.70;99.90
6724;DHT22;3399;52.530;13.304;2023-02-18T00:38:35;6.60;99.90
6724;DHT22;3399;52.530;13.304;2023-02-18T00:41:01;6.50;99.90
6724;DHT22;3399;52.530;13.304;2023-02-18T00:43:27;6.50;99.90
6724;DHT22;3399;52.530;13.304;2023-02-18T00:45:53;6.40;99.90
6724;DHT22;3399;52.530;13.304;2023-02-18T00:48:18;6.40;99.90
6724;DHT22;3399;52.530;13.304;2023-02-18T00:50:44;6.40;99.90
6724;DHT22;3399;52.530;13.304;2023-02-18T00:53:10;6.30;99.90
6724;DHT22;3399;52.530;13.304;2023-02-18T00:55:43;6.30;99.90
6724;DHT22;3399;52.530;13.304;2023-02-18T00:58:10;6.30;99.90
6724;DHT22;3399;52.530;13.304;2023-02-18T01:00:36;6.20;99.90
6724;DHT22;3399;52.530;13.304;2023-02-18T01:03:01;6.20;99.90
6724;DHT22;3399;52.530;13.304;2023-02-18T01:05:27;6.20;99.90
6724;DHT22;3399;52.530;13.304;2023-02-18T01:07:53;6.10;99.90
6724;DHT22;3399;52.530;13.304;2023-02-18T01:10:19;6.20;99.90
6724;DHT22;3399;52.530;13.304;2023-02-18T01:12:45;6.20;99.90
6724;DHT22;3399;52.530;13.304;2023-02-18T01:15:13;6.20;99.90
6724;DHT22;3399;52.530;13.304;2023-02-18T01:17:39;6.20;99.90
6724;DHT22;3399;52.530;13.304;2023-02-18T01:20:06;6.10;99.90
6724;DHT22;3399;52.530;13.304;2023-02-18T01:22:32;6.10;99.90
6724;DHT22;3399;52.530;13.304;2023-02-18T01:24:57;6.10;99.90
6724;DHT22;3399;52.530;13.304;2023-02-18T01:27:22;6.10;99.90
6724;DHT22;3399;52.530;13.304;2023-02-18T01:29:49;6.10;99.90
6724;DHT22;3399;52.530;13.304;2023-02-18T01:32:14;6.10;99.90
6724;DHT22;3399;52.530;13.304;2023-02-18T01:34:40;6.10;99.90
6724;DHT22;3399;52.530;13.304;2023-02-18T01:37:05;6.20;99.90
6724;DHT22;3399;52.530;13.304;2023-02-18T01:39:31;6.20;99.90
6724;DHT22;3399;52.530;13.304;2023-02-18T01:41:56;6.20;99.90
6724;DHT22;3399;52.530;13.304;2023-02-18T01:44:25;6.20;99.90
6724;DHT22;3399;52.530;13.304;2023-02-18T01:46:51;6.10;99.90
6724;DHT22;3399;52.530;13.304;2023-02-18T01:49:21;6.10;99.90
6724;DHT22;3399;52.530;13.304;2023-02-18T01:51:51;6.10;99.90
6724;DHT22;3399;52.530;13.304;2023-02-18T01:54:26;6.10;99.90
6724;DHT22;3399;52.530;13.304;2023-02-18T01:56:54;6.10;99.90
6724;DHT22;3399;52.530;13.304;2023-02-18T01:59:23;6.10;99.90
6724;DHT22;3399;52.530;13.304;2023-02-18T02:01:50;6.00;99.90
6724;DHT22;3399;52.530;13.304;2023-02-18T02:04:15;6.10;99.90
6724;DHT22;3399;52.530;13.304;2023-02-18T02:06:41;6.10;99.90
6724;DHT22;3399;52.530;13.304;2023-02-18T02:09:09;6.00;99.90
6724;DHT22;3399;52.530;13.304;2023-02-18T02:18:08;6.10;99.90
6724;DHT22;3399;52.530;13.304;2023-02-18T02:23:54;6.00;99.90
6724;DHT22;3399;52.530;13.304;2023-02-18T02:38:02;5.90;99.90
6724;DHT22;3399;52.530;13.304;2023-02-18T02:46:05;5.90;99.90
6724;DHT22;3399;52.530;13.304;2023-02-18T02:48:47;5.90;99.90
6724;DHT22;3399;52.530;13.304;2023-02-18T02:51:36;5.80;99.90
6724;DHT22;3399;52.530;13.304;2023-02-18T02:54:23;5.80;99.90
6724;DHT22;3399;52.530;13.304;2023-02-18T02:56:49;5.80;99.90
6724;DHT22;3399;52.530;13.304;2023-02-18T02:59:25;5.80;99.90
6724;DHT22;3399;52.530;13.304;2023-02-18T03:02:23;6.00;99.90
6724;DHT22;3399;52.530;13.304;2023-02-18T03:08:01;6.00;99.90
6724;DHT22;3399;52.530;13.304;2023-02-18T03:16:35;5.90;99.90
6724;DHT22;3399;52.530;13.304;2023-02-18T03:19:24;5.90;99.90
6724;DHT22;3399;52.530;13.304;2023-02-18T03:21:59;5.80;99.90
6724;DHT22;3399;52.530;13.304;2023-02-18T03:24:29;5.90;99.90
6724;DHT22;3399;52.530;13.304;2023-02-18T03:26:59;5.80;99.90
6724;DHT22;3399;52.530;13.304;2023-02-18T03:29:27;5.90;99.90
6724;DHT22;3399;52.530;13.304;2023-02-18T03:31:56;6.00;99.90
6724;DHT22;3399;52.530;13.304;2023-02-18T03:34:30;6.00;99.90
6724;DHT22;3399;52.530;13.304;2023-02-18T03:36:59;6.10;99.90
6724;DHT22;3399;52.530;13.304;2023-02-18T03:39:28;6.10;99.90
6724;DHT22;3399;52.530;13.304;2023-02-18T03:41:54;6.10;99.90
6724;DHT22;3399;52.530;13.304;2023-02-18T03:44:20;6.10;99.90
6724;DHT22;3399;52.530;13.304;2023-02-18T03:46:45;6.00;99.90
6724;DHT22;3399;52.530;13.304;2023-02-18T03:49:13;6.00;99.90
6724;DHT22;3399;52.530;13.304;2023-02-18T03:51:39;6.00;99.90
6724;DHT22;3399;52.530;13.304;2023-02-18T03:54:05;6.00;99.90
6724;DHT22;3399;52.530;13.304;2023-02-18T03:56:30;5.90;99.90
6724;DHT22;3399;52.530;13.304;2023-02-18T03:58:56;5.90;99.90
6724;DHT22;3399;52.530;13.304;2023-02-18T04:01:21;5.90;99.90
6724;DHT22;3399;52.530;13.304;2023-02-18T04:03:47;5.90;99.90
6724;DHT22;3399;52.530;13.304;2023-02-18T04:06:13;5.90;99.90
6724;DHT22;3399;52.530;13.304;2023-02-18T04:08:38;5.90;99.90
6724;DHT22;3399;52.530;13.304;2023-02-18T04:11:04;5.90;99.90
6724;DHT22;3399;52.530;13.304;2023-02-18T04:13:30;5.90;99.90
6724;DHT22;3399;52.530;13.304;2023-02-18T04:15:56;5.90;99.90
6724;DHT22;3399;52.530;13.304;2023-02-18T04:18:22;5.90;99.90
6724;DHT22;3399;52.530;13.304;2023-02-18T04:20:47;5.90;99.90
6724;DHT22;3399;52.530;13.304;2023-02-18T04:23:13;5.80;99.90
6724;DHT22;3399;52.530;13.304;2023-02-18T04:25:39;5.80;99.90
6724;DHT22;3399;52.530;13.304;2023-02-18T04:28:05;5.70;99.90
6724;DHT22;3399;52.530;13.304;2023-02-18T04:30:31;5.70;99.90
6724;DHT22;3399;52.530;13.304;2023-02-18T04:32:56;5.70;99.90
6724;DHT22;3399;52.530;13.304;2023-02-18T04:35:22;5.70;99.90
6724;DHT22;3399;52.530;13.304;2023-02-18T04:37:48;5.70;99.90
6724;DHT22;3399;52.530;13.304;2023-02-18T04:40:14;5.60;99.90
6724;DHT22;3399;52.530;13.304;2023-02-18T04:42:40;5.70;99.90
6724;DHT22;3399;52.530;13.304;2023-02-18T04:45:06;5.70;99.90
6724;DHT22;3399;52.530;13.304;2023-02-18T04:47:31;5.70;99.90
6724;DHT22;3399;52.530;13.304;2023-02-18T04:49:57;5.70;99.90
6724;DHT22;3399;52.530;13.304;2023-02-18T04:52:22;5.60;99.90
6724;DHT22;3399;52.530;13.304;2023-02-18T04:54:48;5.60;99.90
6724;DHT22;3399;52.530;13.304;2023-02-18T04:57:13;5.60;99.90
6724;DHT22;3399;52.530;13.304;2023-02-18T04:59:40;5.60;99.90
6724;DHT22;3399;52.530;13.304;2023-02-18T05:02:05;5.60;99.90
6724;DHT22;3399;52.530;13.304;2023-02-18T05:04:31;5.60;99.90
6724;DHT22;3399;52.530;13.304;2023-02-18T05:06:57;5.60;99.90
6724;DHT22;3399;52.530;13.304;2023-02-18T05:09:22;5.60;99.90
6724;DHT22;3399;52.530;13.304;2023-02-18T05:11:48;5.60;99.90
6724;DHT22;3399;52.530;13.304;2023-02-18T05:14:14;5.60;99.90
6724;DHT22;3399;52.530;13.304;2023-02-18T05:16:40;5.70;99.90
6724;DHT22;3399;52.530;13.304;2023-02-18T05:19:05;5.70;99.90
6724;DHT22;3399;52.530;13.304;2023-02-18T05:21:31;5.80;99.90
6724;DHT22;3399;52.530;13.304;2023-02-18T05:23:57;5.80;99.90
6724;DHT22;3399;52.530;13.304;2023-02-18T05:26:22;5.90;99.90
6724;DHT22;3399;52.530;13.304;2023-02-18T05:28:49;5.90;99.90
6724;DHT22;3399;52.530;13.304;2023-02-18T05:31:14;5.90;99.90
6724;DHT22;3399;52.530;13.304;2023-02-18T05:33:40;5.90;99.90
6724;DHT22;3399;52.530;13.304;2023-02-18T05:36:06;5.90;99.90
6724;DHT22;3399;52.530;13.304;2023-02-18T05:38:31;6.00;99.90
6724;DHT22;3399;52.530;13.304;2023-02-18T05:40:57;6.00;99.90
6724;DHT22;3399;52.530;13.304;2023-02-18T05:43:22;6.10;99.90
6724;DHT22;3399;52.530;13.304;2023-02-18T05:45:48;6.10;99.90
6724;DHT22;3399;52.530;13.304;2023-02-18T05:48:13;6.20;99.90
6724;DHT22;3399;52.530;13.304;2023-02-18T05:50:39;6.20;99.90
6724;DHT22;3399;52.530;13.304;2023-02-18T05:53:04;6.20;99.90
6724;DHT22;3399;52.530;13.304;2023-02-18T05:55:30;6.20;99.90
6724;DHT22;3399;52.530;13.304;2023-02-18T05:57:56;6.30;99.90
6724;DHT22;3399;52.530;13.304;2023-02-18T06:00:22;6.30;99.90
6724;DHT22;3399;52.530;13.304;2023-02-18T06:02:47;6.20;99.90
6724;DHT22;3399;52.530;13.304;2023-02-18T06:05:13;6.20;99.90
6724;DHT22;3399;52.530;13.304;2023-02-18T06:07:38;6.20;99.90
6724;DHT22;3399;52.530;13.304;2023-02-18T06:10:05;6.30;99.90
6724;DHT22;3399;52.530;13.304;2023-02-18T06:12:31;6.30;99.90
6724;DHT22;3399;52.530;13.304;2023-02-18T06:14:56;6.40;99.90
6724;DHT22;3399;52.530;13.304;2023-02-18T06:17:21;6.40;99.90
6724;DHT22;3399;52.530;13.304;2023-02-18T06:19:48;6.40;99.90
6724;DHT22;3399;52.530;13.304;2023-02-18T06:22:14;6.40;99.90
6724;DHT22;3399;52.530;13.304;2023-02-18T06:24:40;6.50;99.90
6724;DHT22;3399;52.530;13.304;2023-02-18T06:27:05;6.40;99.90
6724;DHT22;3399;52.530;13.304;2023-02-18T06:29:31;6.40;99.90
6724;DHT22;3399;52.530;13.304;2023-02-18T06:31:57;6.50;99.90
6724;DHT22;3399;52.530;13.304;2023-02-18T06:34:23;6.40;99.90
6724;DHT22;3399;52.530;13.304;2023-02-18T06:36:49;6.50;99.90
6724;DHT22;3399;52.530;13.304;2023-02-18T06:39:14;6.50;99.90
6724;DHT22;3399;52.530;13.304;2023-02-18T06:41:40;6.50;99.90
6724;DHT22;3399;52.530;13.304;2023-02-18T06:44:06;6.60;99.90
6724;DHT22;3399;52.530;13.304;2023-02-18T06:46:32;6.60;99.90
6724;DHT22;3399;52.530;13.304;2023-02-18T06:48:57;6.60;99.90
6724;DHT22;3399;52.530;13.304;2023-02-18T06:51:24;6.60;99.90
6724;DHT22;3399;52.530;13.304;2023-02-18T06:53:50;6.70;99.90
6724;DHT22;3399;52.530;13.304;2023-02-18T06:56:15;6.70;99.90
6724;DHT22;3399;52.530;13.304;2023-02-18T06:58:41;6.70;99.90
6724;DHT22;3399;52.530;13.304;2023-02-18T07:01:07;6.70;99.90
6724;DHT22;3399;52.530;13.304;2023-02-18T07:03:32;6.70;99.90
6724;DHT22;3399;52.530;13.304;2023-02-18T07:05:58;6.70;99.90
6724;DHT22;3399;52.530;13.304;2023-02-18T07:08:24;6.80;99.90
6724;DHT22;3399;52.530;13.304;2023-02-18T07:10:49;6.80;99.90
6724;DHT22;3399;52.530;13.304;2023-02-18T07:13:15;6.90;99.90
6724;DHT22;3399;52.530;13.304;2023-02-18T07:15:41;6.80;99.90
6724;DHT22;3399;52.530;13.304;2023-02-18T07:18:06;6.90;99.90
6724;DHT22;3399;52.530;13.304;2023-02-18T07:20:32;6.80;99.90
6724;DHT22;3399;52.530;13.304;2023-02-18T07:22:58;6.80;99.90
6724;DHT22;3399;52.530;13.304;2023-02-18T07:25:23;6.90;99.90
6724;DHT22;3399;52.530;13.304;2023-02-18T07:27:50;6.90;99.90
6724;DHT22;3399;52.530;13.304;2023-02-18T07:30:15;6.80;99.90
6724;DHT22;3399;52.530;13.304;2023-02-18T07:32:41;6.90;99.90
6724;DHT22;3399;52.530;13.304;2023-02-18T07:35:07;6.90;99.90
6724;DHT22;3399;52.530;13.304;2023-02-18T07:37:32;7.00;99.90
6724;DHT22;3399;52.530;13.304;2023-02-18T07:39:58;7.00;99.90
6724;DHT22;3399;52.530;13.304;2023-02-18T07:42:24;7.10;99.90
6724;DHT22;3399;52.530;13.304;2023-02-18T07:44:49;7.10;99.90
6724;DHT22;3399;52.530;13.304;2023-02-18T07:47:16;7.10;99.90
6724;DHT22;3399;52.530;13.304;2023-02-18T07:49:45;7.20;99.90
6724;DHT22;3399;52.530;13.304;2023-02-18T07:52:11;7.40;99.90
6724;DHT22;3399;52.530;13.304;2023-02-18T07:54:37;7.40;99.90
6724;DHT22;3399;52.530;13.304;2023-02-18T07:57:03;7.30;99.90
6724;DHT22;3399;52.530;13.304;2023-02-18T07:59:28;7.30;99.90
6724;DHT22;3399;52.530;13.304;2023-02-18T08:01:54;7.20;99.90
6724;DHT22;3399;52.530;13.304;2023-02-18T08:04:19;7.10;99.90
6724;DHT22;3399;52.530;13.304;2023-02-18T08:06:47;7.20;99.90
6724;DHT22;3399;52.530;13.304;2023-02-18T08:09:13;7.20;99.90
6724;DHT22;3399;52.530;13.304;2023-02-18T08:11:39;7.20;99.90
6724;DHT22;3399;52.530;13.304;2023-02-18T08:14:05;7.00;99.90
6724;DHT22;3399;52.530;13.304;2023-02-18T08:16:31;7.00;99.90
6724;DHT22;3399;52.530;13.304;2023-02-18T08:18:56;6.90;99.90
6724;DHT22;3399;52.530;13.304;2023-02-18T08:21:24;7.00;99.90
6724;DHT22;3399;52.530;13.304;2023-02-18T08:23:50;7.20;99.90
6724;DHT22;3399;52.530;13.304;2023-02-18T08:26:16;7.20;99.90
6724;DHT22;3399;52.530;13.304;2023-02-18T08:28:43;7.30;99.90
6724;DHT22;3399;52.530;13.304;2023-02-18T08:31:26;7.40;99.90
6724;DHT22;3399;52.530;13.304;2023-02-18T08:33:53;7.30;99.90
6724;DHT22;3399;52.530;13.304;2023-02-18T08:36:19;7.20;99.90
6724;DHT22;3399;52.530;13.304;2023-02-18T08:38:45;7.10;99.90
6724;DHT22;3399;52.530;13.304;2023-02-18T08:41:11;7.00;99.90
6724;DHT22;3399;52.530;13.304;2023-02-18T08:43:38;7.00;99.90
6724;DHT22;3399;52.530;13.304;2023-02-18T08:46:04;7.10;99.90
6724;DHT22;3399;52.530;13.304;2023-02-18T08:48:30;7.00;99.90
6724;DHT22;3399;52.530;13.304;2023-02-18T08:50:56;7.00;99.90
6724;DHT22;3399;52.530;13.304;2023-02-18T08:53:22;7.00;99.90
6724;DHT22;3399;52.530;13.304;2023-02-18T08:55:48;7.00;99.90
6724;DHT22;3399;52.530;13.304;2023-02-18T08:58:14;7.00;99.90
6724;DHT22;3399;52.530;13.304;2023-02-18T09:00:41;7.00;99.90
6724;DHT22;3399;52.530;13.304;2023-02-18T09:03:08;7.10;99.90
6724;DHT22;3399;52.530;13.304;2023-02-18T09:05:34;7.20;99.90
6724;DHT22;3399;52.530;13.304;2023-02-18T09:08:00;7.10;99.90
6724;DHT22;3399;52.530;13.304;2023-02-18T09:10:25;7.10;99.90
6724;DHT22;3399;52.530;13.304;2023-02-18T09:12:51;7.10;99.90
6724;DHT22;3399;52.530;13.304;2023-02-18T09:15:16;7.20;99.90
6724;DHT22;3399;52.530;13.304;2023-02-18T09:17:42;7.20;99.90
6724;DHT22;3399;52.530;13.304;2023-02-18T09:20:07;7.20;99.90
6724;DHT22;3399;52.530;13.304;2023-02-18T09:22:33;7.30;99.90
6724;DHT22;3399;52.530;13.304;2023-02-18T09:24:59;7.40;99.90
6724;DHT22;3399;52.530;13.304;2023-02-18T09:27:24;7.40;99.90
6724;DHT22;3399;52.530;13.304;2023-02-18T09:29:50;7.50;99.90
6724;DHT22;3399;52.530;13.304;2023-02-18T09:32:16;7.60;99.90
6724;DHT22;3399;52.530;13.304;2023-02-18T09:34:43;7.60;99.90
6724;DHT22;3399;52.530;13.304;2023-02-18T09:37:09;7.60;99.90
6724;DHT22;3399;52.530;13.304;2023-02-18T09:39:35;7.70;99.90
6724;DHT22;3399;52.530;13.304;2023-02-18T09:42:03;7.70;99.90
6724;DHT22;3399;52.530;13.304;2023-02-18T09:44:37;7.70;99.90
6724;DHT22;3399;52.530;13.304;2023-02-18T09:47:13;7.60;99.90
6724;DHT22;3399;52.530;13.304;2023-02-18T09:49:46;7.60;99.90
6724;DHT22;3399;52.530;13.304;2023-02-18T09:52:32;7.70;99.90
6724;DHT22;3399;52.530;13.304;2023-02-18T09:55:01;7.90;99.90
6724;DHT22;3399;52.530;13.304;2023-02-18T09:57:40;8.00;99.90
6724;DHT22;3399;52.530;13.304;2023-02-18T10:00:14;7.80;99.90
6724;DHT22;3399;52.530;13.304;2023-02-18T10:02:49;7.80;99.90
6724;DHT22;3399;52.530;13.304;2023-02-18T10:05:17;7.80;99.90
6724;DHT22;3399;52.530;13.304;2023-02-18T10:07:43;7.80;99.90
6724;DHT22;3399;52.530;13.304;2023-02-18T10:12:54;7.70;99.90
6724;DHT22;3399;52.530;13.304;2023-02-18T10:15:22;7.70;99.90
6724;DHT22;3399;52.530;13.304;2023-02-18T10:17:50;7.60;99.90
6724;DHT22;3399;52.530;13.304;2023-02-18T10:20:21;7.60;99.90
6724;DHT22;3399;52.530;13.304;2023-02-18T10:22:47;7.60;99.90
6724;DHT22;3399;52.530;13.304;2023-02-18T10:25:19;7.50;99.90
6724;DHT22;3399;52.530;13.304;2023-02-18T10:27:47;7.50;99.90
6724;DHT22;3399;52.530;13.304;2023-02-18T10:32:46;7.50;99.90
6724;DHT22;3399;52.530;13.304;2023-02-18T10:35:27;7.60;99.90
6724;DHT22;3399;52.530;13.304;2023-02-18T10:38:23;7.70;99.90
6724;DHT22;3399;52.530;13.304;2023-02-18T10:41:25;7.80;99.90
6724;DHT22;3399;52.530;13.304;2023-02-18T10:46:56;7.80;99.90
6724;DHT22;3399;52.530;13.304;2023-02-18T10:49:54;7.90;99.90
6724;DHT22;3399;52.530;13.304;2023-02-18T10:52:20;7.90;99.90
6724;DHT22;3399;52.530;13.304;2023-02-18T10:54:57;7.90;99.90
6724;DHT22;3399;52.530;13.304;2023-02-18T10:57:24;7.80;99.90
6724;DHT22;3399;52.530;13.304;2023-02-18T11:00:15;7.70;99.90
6724;DHT22;3399;52.530;13.304;2023-02-18T11:02:41;7.60;99.90
6724;DHT22;3399;52.530;13.304;2023-02-18T11:05:25;7.70;99.90
6724;DHT22;3399;52.530;13.304;2023-02-18T11:07:55;7.70;99.90
6724;DHT22;3399;52.530;13.304;2023-02-18T11:10:34;7.80;99.90
6724;DHT22;3399;52.530;13.304;2023-02-18T11:13:05;7.90;99.90
6724;DHT22;3399;52.530;13.304;2023-02-18T11:15:31;7.80;99.90
6724;DHT22;3399;52.530;13.304;2023-02-18T11:18:12;7.80;99.90
6724;DHT22;3399;52.530;13.304;2023-02-18T11:20:38;7.80;99.90
6724;DHT22;3399;52.530;13.304;2023-02-18T11:25:39;7.70;99.90
6724;DHT22;3399;52.530;13.304;2023-02-18T11:28:24;7.70;99.90
6724;DHT22;3399;52.530;13.304;2023-02-18T11:30:56;7.60;99.90
6724;DHT22;3399;52.530;13.304;2023-02-18T11:33:32;7.50;99.90
6724;DHT22;3399;52.530;13.304;2023-02-18T11:36:03;7.50;99.90
6724;DHT22;3399;52.530;13.304;2023-02-18T11:38:43;7.50;99.90
6724;DHT22;3399;52.530;13.304;2023-02-18T11:41:12;7.50;99.90
6724;DHT22;3399;52.530;13.304;2023-02-18T11:43:41;7.40;99.90
6724;DHT22;3399;52.530;13.304;2023-02-18T11:46:19;7.40;99.90
6724;DHT22;3399;52.530;13.304;2023-02-18T11:48:45;7.40;99.90
6724;DHT22;3399;52.530;13.304;2023-02-18T11:51:33;7.40;99.90
6724;DHT22;3399;52.530;13.304;2023-02-18T11:54:20;7.50;99.90
6724;DHT22;3399;52.530;13.304;2023-02-18T11:56:57;7.50;99.90
6724;DHT22;3399;52.530;13.304;2023-02-18T11:59:24;7.50;99.90
6724;DHT22;3399;52.530;13.304;2023-02-18T12:01:56;7.60;99.90
6724;DHT22;3399;52.530;13.304;2023-02-18T12:04:35;7.60;99.90
6724;DHT22;3399;52.530;13.304;2023-02-18T12:07:19;7.70;99.90
6724;DHT22;3399;52.530;13.304;2023-02-18T12:09:49;7.80;99.90
6724;DHT22;3399;52.530;13.304;2023-02-18T12:12:29;7.90;99.90
6724;DHT22;3399;52.530;13.304;2023-02-18T12:14:55;8.00;99.90
6724;DHT22;3399;52.530;13.304;2023-02-18T12:23:23;8.40;99.90
6724;DHT22;3399;52.530;13.304;2023-02-18T12:26:26;8.50;99.90
6724;DHT22;3399;52.530;13.304;2023-02-18T12:31:58;8.70;99.90
6724;DHT22;3399;52.530;13.304;2023-02-18T12:34:48;8.80;99.90
6724;DHT22;3399;52.530;13.304;2023-02-18T12:43:12;9.10;99.90
6724;DHT22;3399;52.530;13.304;2023-02-18T12:46:12;9.20;99.90
6724;DHT22;3399;52.530;13.304;2023-02-18T12:49:38;9.30;99.90
6724;DHT22;3399;52.530;13.304;2023-02-18T12:57:14;9.70;99.90
6724;DHT22;3399;52.530;13.304;2023-02-18T13:05:25;10.10;99.90
6724;DHT22;3399;52.530;13.304;2023-02-18T13:11:09;10.20;99.90
6724;DHT22;3399;52.530;13.304;2023-02-18T13:13:41;10.20;99.90
6724;DHT22;3399;52.530;13.304;2023-02-18T13:16:14;10.20;99.90
6724;DHT22;3399;52.530;13.304;2023-02-18T13:18:44;10.30;99.90
6724;DHT22;3399;52.530;13.304;2023-02-18T13:21:13;10.30;99.90
6724;DHT22;3399;52.530;13.304;2023-02-18T13:23:49;10.30;99.90
6724;DHT22;3399;52.530;13.304;2023-02-18T13:26:17;10.30;99.90
6724;DHT22;3399;52.530;13.304;2023-02-18T13:32:26;10.20;99.90
6724;DHT22;3399;52.530;13.304;2023-02-18T13:34:54;10.20;99.90
6724;DHT22;3399;52.530;13.304;2023-02-18T13:39:58;10.20;99.90
6724;DHT22;3399;52.530;13.304;2023-02-18T13:47:43;10.10;99.90
6724;DHT22;3399;52.530;13.304;2023-02-18T13:52:47;10.20;99.90
6724;DHT22;3399;52.530;13.304;2023-02-18T13:55:55;10.20;99.90
6724;DHT22;3399;52.530;13.304;2023-02-18T14:03:57;10.20;99.90
6724;DHT22;3399;52.530;13.304;2023-02-18T14:07:16;10.20;99.90
6724;DHT22;3399;52.530;13.304;2023-02-18T14:11:46;10.20;99.90
6724;DHT22;3399;52.530;13.304;2023-02-18T14:19:53;10.10;99.90
6724;DHT22;3399;52.530;13.304;2023-02-18T14:22:33;10.20;99.90
6724;DHT22;3399;52.530;13.304;2023-02-18T14:27:34;10.20;99.90
6724;DHT22;3399;52.530;13.304;2023-02-18T14:30:05;10.00;99.90
6724;DHT22;3399;52.530;13.304;2023-02-18T14:32:32;10.00;99.90
6724;DHT22;3399;52.530;13.304;2023-02-18T14:35:30;9.90;99.90
6724;DHT22;3399;52.530;13.304;2023-02-18T14:51:30;9.70;99.90
6724;DHT22;3399;52.530;13.304;2023-02-18T14:53:56;9.70;99.90
6724;DHT22;3399;52.530;13.304;2023-02-18T14:56:27;9.80;99.90
6724;DHT22;3399;52.530;13.304;2023-02-18T14:58:56;9.70;99.90
6724;DHT22;3399;52.530;13.304;2023-02-18T15:01:31;9.70;99.90
6724;DHT22;3399;52.530;13.304;2023-02-18T15:03:58;9.70;99.90
6724;DHT22;3399;52.530;13.304;2023-02-18T15:06:32;9.70;99.90
6724;DHT22;3399;52.530;13.304;2023-02-18T15:08:59;9.70;99.90
6724;DHT22;3399;52.530;13.304;2023-02-18T15:11:36;9.70;99.90
6724;DHT22;3399;52.530;13.304;2023-02-18T15:14:09;9.80;99.90
6724;DHT22;3399;52.530;13.304;2023-02-18T15:16:38;9.80;99.90
6724;DHT22;3399;52.530;13.304;2023-02-18T15:19:06;9.80;99.90
6724;DHT22;3399;52.530;13.304;2023-02-18T15:21:41;9.80;99.90
6724;DHT22;3399;52.530;13.304;2023-02-18T15:24:20;9.80;99.90
6724;DHT22;3399;52.530;13.304;2023-02-18T15:26:48;9.80;99.90
6724;DHT22;3399;52.530;13.304;2023-02-18T15:29:27;9.80;99.90
6724;DHT22;3399;52.530;13.304;2023-02-18T15:31:55;9.80;99.90
6724;DHT22;3399;52.530;13.304;2023-02-18T15:37:00;9.80;99.90
6724;DHT22;3399;52.530;13.304;2023-02-18T15:39:26;9.80;99.90
6724;DHT22;3399;52.530;13.304;2023-02-18T15:42:00;9.80;99.90
6724;DHT22;3399;52.530;13.304;2023-02-18T15:44:29;9.90;99.90
6724;DHT22;3399;52.530;13.304;2023-02-18T15:47:00;9.90;99.90
6724;DHT22;3399;52.530;13.304;2023-02-18T15:49:26;9.90;99.90
6724;DHT22;3399;52.530;13.304;2023-02-18T15:51:56;9.90;99.90
6724;DHT22;3399;52.530;13.304;2023-02-18T15:54:23;9.90;99.90
6724;DHT22;3399;52.530;13.304;2023-02-18T15:56:51;9.90;99.90
6724;DHT22;3399;52.530;13.304;2023-02-18T16:01:50;9.80;99.90
6724;DHT22;3399;52.530;13.304;2023-02-18T16:04:16;9.80;99.90
6724;DHT22;3399;52.530;13.304;2023-02-18T16:06:50;9.80;99.90
6724;DHT22;3399;52.530;13.304;2023-02-18T16:09:25;9.80;99.90
6724;DHT22;3399;52.530;13.304;2023-02-18T16:11:56;9.70;99.90
6724;DHT22;3399;52.530;13.304;2023-02-18T16:17:16;9.60;99.90
6724;DHT22;3399;52.530;13.304;2023-02-18T16:19:49;9.50;99.90
6724;DHT22;3399;52.530;13.304;2023-02-18T16:22:26;9.40;99.90
6724;DHT22;3399;52.530;13.304;2023-02-18T16:25:13;9.40;99.90
6724;DHT22;3399;52.530;13.304;2023-02-18T16:28:15;9.30;99.90
6724;DHT22;3399;52.530;13.304;2023-02-18T16:30:42;9.30;99.90
6724;DHT22;3399;52.530;13.304;2023-02-18T16:33:10;9.30;99.90
6724;DHT22;3399;52.530;13.304;2023-02-18T16:35:35;9.30;99.90
6724;DHT22;3399;52.530;13.304;2023-02-18T16:38:01;9.20;99.90
6724;DHT22;3399;52.530;13.304;2023-02-18T16:40:37;9.10;99.90
6724;DHT22;3399;52.530;13.304;2023-02-18T16:43:16;9.10;99.90
6724;DHT22;3399;52.530;13.304;2023-02-18T16:45:50;9.10;99.90
6724;DHT22;3399;52.530;13.304;2023-02-18T16:48:25;9.10;99.90
6724;DHT22;3399;52.530;13.304;2023-02-18T16:50:52;9.00;99.90
6724;DHT22;3399;52.530;13.304;2023-02-18T16:53:18;8.80;99.90
6724;DHT22;3399;52.530;13.304;2023-02-18T16:55:44;8.60;99.90
6724;DHT22;3399;52.530;13.304;2023-02-18T16:58:10;8.50;99.90
6724;DHT22;3399;52.530;13.304;2023-02-18T17:00:36;8.30;99.90
6724;DHT22;3399;52.530;13.304;2023-02-18T17:03:03;8.10;99.90
6724;DHT22;3399;52.530;13.304;2023-02-18T17:05:30;7.90;99.90
6724;DHT22;3399;52.530;13.304;2023-02-18T17:10:41;7.80;99.90
6724;DHT22;3399;52.530;13.304;2023-02-18T17:13:14;7.70;99.90
6724;DHT22;3399;52.530;13.304;2023-02-18T17:15:41;7.70;99.90
6724;DHT22;3399;52.530;13.304;2023-02-18T17:18:08;7.70;99.90
6724;DHT22;3399;52.530;13.304;2023-02-18T17:20:33;7.60;99.90
6724;DHT22;3399;52.530;13.304;2023-02-18T17:22:59;7.50;99.90
6724;DHT22;3399;52.530;13.304;2023-02-18T17:25:33;7.50;99.90
6724;DHT22;3399;52.530;13.304;2023-02-18T17:27:59;7.50;99.90
6724;DHT22;3399;52.530;13.304;2023-02-18T17:30:25;7.50;99.90
6724;DHT22;3399;52.530;13.304;2023-02-18T17:32:51;7.50;99.90
6724;DHT22;3399;52.530;13.304;2023-02-18T17:35:21;7.50;99.90
6724;DHT22;3399;52.530;13.304;2023-02-18T17:37:48;7.50;99.90
6724;DHT22;3399;52.530;13.304;2023-02-18T17:40:19;7.40;99.90
6724;DHT22;3399;52.530;13.304;2023-02-18T17:42:44;7.30;99.90
6724;DHT22;3399;52.530;13.304;2023-02-18T17:45:34;7.30;99.90
6724;DHT22;3399;52.530;13.304;2023-02-18T17:48:01;7.30;99.90
6724;DHT22;3399;52.530;13.304;2023-02-18T17:50:28;7.30;99.90
6724;DHT22;3399;52.530;13.304;2023-02-18T17:52:54;7.20;99.90
6724;DHT22;3399;52.530;13.304;2023-02-18T17:55:27;7.20;99.90
6724;DHT22;3399;52.530;13.304;2023-02-18T17:57:53;7.20;99.90
6724;DHT22;3399;52.530;13.304;2023-02-18T18:00:29;7.20;99.90
6724;DHT22;3399;52.530;13.304;2023-02-18T18:02:56;7.20;99.90
6724;DHT22;3399;52.530;13.304;2023-02-18T18:05:27;7.10;99.90
6724;DHT22;3399;52.530;13.304;2023-02-18T18:07:54;7.10;99.90
6724;DHT22;3399;52.530;13.304;2023-02-18T18:10:22;7.00;99.90
6724;DHT22;3399;52.530;13.304;2023-02-18T18:12:49;7.00;99.90
6724;DHT22;3399;52.530;13.304;2023-02-18T18:17:48;6.90;99.90
6724;DHT22;3399;52.530;13.304;2023-02-18T18:20:14;6.90;99.90
6724;DHT22;3399;52.530;13.304;2023-02-18T18:22:39;6.90;99.90
6724;DHT22;3399;52.530;13.304;2023-02-18T18:25:46;6.90;99.90
6724;DHT22;3399;52.530;13.304;2023-02-18T18:28:12;6.90;99.90